TE11 weather

Life Flight/Refuel Heliport
Houston, Texas, United States

Public forecast

Using degrees Fahrenheit for public forecast. Weather courtesy of forecast.io.

Closest aviation weather report (METAR) to Life Flight/Refuel Heliport

Closest report is Houston Southwest Airport, 4.3 nm (8.0 km) SSW. Retrieved 2020/04/02 05:55 UTC (12 minutes ago):

KAXH 020555Z AUTO 00000KT 10SM SCT030 16/14 A2997 RMK AO2 T01580135 10197 20146

Closest aviation forecast (TAF) to Life Flight/Refuel Heliport

Closest forecast is William P Hobby Airport, 9.5 nm (17.5 km) ENE. Retrieved 2020/04/02 06:22 UTC (0 seconds ago):

TAF KHOU 020520Z 0206/0306 11006KT P6SM SCT030 BKN250 FM021600 14010G20KT P6SM BKN050 OVC250 FM022000 14010G20KT P6SM SCT025 BKN050 OVC100 FM030000 14008KT P6SM SCT025 BKN050 OVC100 FM030300 13007KT P6SM BKN025 OVC050